Time;durP1;ratioP1;P1;durP2;ratioP2;P2;SDS_P1;SDS_P2;PMS_P1;PMS_P2;Temp;Humidity;BMP_temperature;BMP_pressure;BME280_temperature;BME280_humidity;BME280_pressure;Samples;Min_cycle;Max_cycle;Signal;HPM_P1;HPM_P2
2024/01/05 00:09:37;;;;;;;;;;;8.10;99.90;;;;;;6773528;87;20199;-79
2024/01/05 00:19:38;;;;;;;;;;;8.10;99.90;;;;;;6763775;87;20078;-78
2024/01/05 00:29:38;;;;;;;;;;;8.20;99.90;;;;;;6777834;87;20085;-78
2024/01/05 00:39:40;;;;;;;;;;;8.30;99.90;;;;;;6762674;87;20050;-79
2024/01/05 00:49:40;;;;;;;;;;;8.30;99.90;;;;;;6757988;88;20049;-79
2024/01/05 00:59:41;;;;;;;;;;;8.20;99.90;;;;;;6761439;88;20082;-79
2024/01/05 01:09:41;;;;;;;;;;;8.10;99.90;;;;;;6761840;88;20215;-79
2024/01/05 01:19:41;;;;;;;;;;;8.00;99.90;;;;;;6761112;88;20056;-79
2024/01/05 01:29:42;;;;;;;;;;;7.90;99.90;;;;;;6764407;88;20741;-79
2024/01/05 01:39:44;;;;;;;;;;;8.00;99.90;;;;;;6760730;88;20099;-79
2024/01/05 01:49:44;;;;;;;;;;;8.00;99.90;;;;;;6762903;88;20056;-79
2024/01/05 01:59:45;;;;;;;;;;;7.90;99.90;;;;;;6759934;88;20049;-79
2024/01/05 02:09:45;;;;;;;;;;;7.90;99.90;;;;;;6763007;88;20214;-79
2024/01/05 02:19:46;;;;;;;;;;;7.80;99.90;;;;;;6764042;88;20123;-79
2024/01/05 02:29:46;;;;;;;;;;;7.80;99.90;;;;;;6762200;88;20050;-80
2024/01/05 02:39:47;;;;;;;;;;;7.70;99.90;;;;;;6763519;88;20843;-78
2024/01/05 02:49:47;;;;;;;;;;;7.80;99.90;;;;;;6768504;87;20049;-79
2024/01/05 02:59:47;;;;;;;;;;;7.90;99.90;;;;;;6781013;87;20114;-78
2024/01/05 03:09:48;;;;;;;;;;;7.90;99.90;;;;;;6781805;87;20160;-79
2024/01/05 03:19:48;;;;;;;;;;;7.90;99.90;;;;;;6785517;87;20072;-78
2024/01/05 03:29:49;;;;;;;;;;;7.90;99.90;;;;;;6794903;87;20063;-78
2024/01/05 03:39:49;;;;;;;;;;;7.90;99.90;;;;;;6778783;87;20093;-78
2024/01/05 03:49:50;;;;;;;;;;;7.90;99.90;;;;;;6762301;87;20064;-78
2024/01/05 03:59:50;;;;;;;;;;;7.80;99.90;;;;;;6758780;87;20056;-79
2024/01/05 04:09:51;;;;;;;;;;;7.90;99.90;;;;;;6757064;88;20589;-78
2024/01/05 04:19:51;;;;;;;;;;;8.10;99.90;;;;;;6761241;88;20091;-78
2024/01/05 04:29:52;;;;;;;;;;;8.20;99.90;;;;;;6760387;87;20059;-78
2024/01/05 04:39:52;;;;;;;;;;;8.30;99.90;;;;;;6776427;87;20283;-78
2024/01/05 04:49:53;;;;;;;;;;;8.20;99.90;;;;;;6777947;87;20092;-79
2024/01/05 04:59:53;;;;;;;;;;;8.30;99.90;;;;;;6765739;87;20058;-78
2024/01/05 05:09:53;;;;;;;;;;;8.70;99.90;;;;;;6759868;88;20154;-78
2024/01/05 05:19:55;;;;;;;;;;;8.90;99.90;;;;;;6762826;87;20673;-78
2024/01/05 05:29:55;;;;;;;;;;;9.00;99.90;;;;;;6776611;87;20454;-79
2024/01/05 05:39:56;;;;;;;;;;;9.00;99.90;;;;;;6761617;88;20121;-79
2024/01/05 05:49:56;;;;;;;;;;;9.00;99.90;;;;;;6759478;88;20477;-78
2024/01/05 05:59:57;;;;;;;;;;;9.10;99.90;;;;;;6760546;87;20116;-78
2024/01/05 06:09:58;;;;;;;;;;;9.00;99.90;;;;;;6773902;88;20197;-79
2024/01/05 06:19:59;;;;;;;;;;;9.20;99.90;;;;;;6788699;87;20053;-79
2024/01/05 06:29:59;;;;;;;;;;;9.40;99.90;;;;;;6786724;87;20068;-80
2024/01/05 06:39:59;;;;;;;;;;;9.30;99.90;;;;;;6795258;87;20030;-78
2024/01/05 06:50:00;;;;;;;;;;;9.30;99.90;;;;;;6794894;87;20050;-81
2024/01/05 07:00:01;;;;;;;;;;;9.00;99.90;;;;;;6784510;87;20096;-79
2024/01/05 07:10:02;;;;;;;;;;;9.00;99.90;;;;;;6763984;88;20115;-80
2024/01/05 07:20:02;;;;;;;;;;;9.10;99.90;;;;;;6777508;88;20056;-81
2024/01/05 07:30:06;;;;;;;;;;;9.00;99.90;;;;;;6764731;87;20482;-78
2024/01/05 07:40:07;;;;;;;;;;;9.00;99.90;;;;;;6783310;87;20202;-78
2024/01/05 07:50:08;;;;;;;;;;;9.20;99.90;;;;;;6785967;87;20042;-80
2024/01/05 08:00:09;;;;;;;;;;;9.30;99.90;;;;;;6798328;87;20032;-80
2024/01/05 08:10:10;;;;;;;;;;;9.20;99.90;;;;;;6781824;87;20058;-78
2024/01/05 08:20:10;;;;;;;;;;;9.10;99.90;;;;;;6778250;87;20077;-79
2024/01/05 08:30:12;;;;;;;;;;;9.10;99.90;;;;;;6783119;88;20075;-79
2024/01/05 08:40:12;;;;;;;;;;;9.10;99.90;;;;;;6789252;87;20056;-79
2024/01/05 08:50:13;;;;;;;;;;;9.00;99.90;;;;;;6784344;87;20076;-79
2024/01/05 09:00:13;;;;;;;;;;;9.00;99.90;;;;;;6778493;87;20066;-79
2024/01/05 09:10:14;;;;;;;;;;;9.30;99.90;;;;;;6781232;87;20075;-79
2024/01/05 09:20:14;;;;;;;;;;;9.90;99.90;;;;;;6775898;87;20072;-79
2024/01/05 09:30:15;;;;;;;;;;;10.50;99.90;;;;;;6787332;87;20083;-79
2024/01/05 09:40:15;;;;;;;;;;;10.70;99.90;;;;;;6776091;87;20079;-78
2024/01/05 09:50:17;;;;;;;;;;;10.50;99.90;;;;;;6769149;87;20075;-80
2024/01/05 10:00:18;;;;;;;;;;;10.80;99.90;;;;;;6767824;87;20108;-79
2024/01/05 10:10:18;;;;;;;;;;;11.10;99.90;;;;;;6780672;87;20067;-80
2024/01/05 10:20:19;;;;;;;;;;;11.40;99.90;;;;;;6780866;87;20195;-79
2024/01/05 10:30:28;;;;;;;;;;;10.60;99.90;;;;;;6780481;87;20087;-80
2024/01/05 10:40:29;;;;;;;;;;;9.90;99.90;;;;;;6789682;87;20055;-80
2024/01/05 10:50:30;;;;;;;;;;;9.30;99.90;;;;;;6793074;87;20085;-80
2024/01/05 11:00:31;;;;;;;;;;;9.20;99.90;;;;;;6789897;87;20528;-78
2024/01/05 11:10:47;;;;;;;;;;;9.80;99.90;;;;;;6787476;87;20077;-79
2024/01/05 11:21:06;;;;;;;;;;;9.40;99.90;;;;;;6790098;87;20145;-80
2024/01/05 11:31:06;;;;;;;;;;;9.30;99.90;;;;;;6771754;88;20084;-79
2024/01/05 11:41:19;;;;;;;;;;;9.50;99.90;;;;;;6769928;88;20060;-78
2024/01/05 11:51:19;;;;;;;;;;;9.30;99.90;;;;;;6766865;88;20214;-80
2024/01/05 12:01:21;;;;;;;;;;;9.40;99.90;;;;;;6766162;88;20222;-80
2024/01/05 12:11:21;;;;;;;;;;;9.20;99.90;;;;;;6738598;88;20042;-81
2024/01/05 12:21:22;;;;;;;;;;;9.20;99.90;;;;;;6737837;88;20191;-80
2024/01/05 12:31:23;;;;;;;;;;;9.20;99.90;;;;;;6761349;88;20574;-80
2024/01/05 12:41:24;;;;;;;;;;;9.20;99.90;;;;;;6765327;88;20163;-79
2024/01/05 12:51:25;;;;;;;;;;;9.10;99.90;;;;;;6763784;88;20093;-80
2024/01/05 13:01:25;;;;;;;;;;;9.20;99.90;;;;;;6766341;88;20568;-78
2024/01/05 13:11:26;;;;;;;;;;;9.20;99.90;;;;;;6761958;87;20063;-78
2024/01/05 13:21:30;;;;;;;;;;;9.20;99.90;;;;;;6762647;88;20081;-78
2024/01/05 13:31:31;;;;;;;;;;;9.10;99.90;;;;;;6762659;88;20053;-79
2024/01/05 13:41:31;;;;;;;;;;;9.30;99.90;;;;;;6762910;88;20061;-78
2024/01/05 13:51:32;;;;;;;;;;;9.50;99.90;;;;;;6763463;88;20183;-79
2024/01/05 14:01:32;;;;;;;;;;;9.70;99.90;;;;;;6764631;87;20191;-78
2024/01/05 14:11:32;;;;;;;;;;;11.50;99.90;;;;;;6764554;88;20052;-79
2024/01/05 14:21:33;;;;;;;;;;;11.10;99.90;;;;;;6763274;88;20052;-80
2024/01/05 14:31:33;;;;;;;;;;;10.50;99.90;;;;;;6760180;88;20205;-79
2024/01/05 14:41:34;;;;;;;;;;;10.70;99.90;;;;;;6762804;87;20078;-79
2024/01/05 14:51:34;;;;;;;;;;;10.60;99.90;;;;;;6776086;87;20511;-80
2024/01/05 15:01:35;;;;;;;;;;;10.80;99.90;;;;;;6777260;87;20609;-79
2024/01/05 15:11:35;;;;;;;;;;;10.10;99.90;;;;;;6775673;87;20095;-80
2024/01/05 15:21:35;;;;;;;;;;;9.60;99.90;;;;;;6781777;87;20091;-79
2024/01/05 15:31:36;;;;;;;;;;;9.30;99.90;;;;;;6780822;87;20110;-79
2024/01/05 15:41:36;;;;;;;;;;;9.10;99.90;;;;;;6792821;87;20048;-80
2024/01/05 15:51:37;;;;;;;;;;;8.90;99.90;;;;;;6803926;87;20025;-79
2024/01/05 16:01:37;;;;;;;;;;;8.80;99.90;;;;;;6799435;87;20543;-80
2024/01/05 16:11:39;;;;;;;;;;;8.40;99.90;;;;;;6799254;87;20032;-80
2024/01/05 16:21:40;;;;;;;;;;;8.30;99.90;;;;;;6800851;87;20512;-79
2024/01/05 16:31:41;;;;;;;;;;;8.20;99.90;;;;;;6784433;87;20526;-79
2024/01/05 16:41:41;;;;;;;;;;;8.10;99.90;;;;;;6788488;87;20126;-79
2024/01/05 16:51:41;;;;;;;;;;;8.00;99.90;;;;;;6794106;87;20240;-80
2024/01/05 17:01:42;;;;;;;;;;;7.90;99.90;;;;;;6796176;87;20629;-80
2024/01/05 17:11:42;;;;;;;;;;;7.90;99.90;;;;;;6797866;87;20080;-80
2024/01/05 17:21:43;;;;;;;;;;;7.90;99.90;;;;;;6792984;87;20063;-80
2024/01/05 17:31:43;;;;;;;;;;;7.80;99.90;;;;;;6800263;87;20127;-80
2024/01/05 17:41:44;;;;;;;;;;;7.60;99.90;;;;;;6801866;87;20062;-81
2024/01/05 17:51:44;;;;;;;;;;;7.70;99.90;;;;;;6802442;87;20024;-81
2024/01/05 18:01:45;;;;;;;;;;;7.70;99.90;;;;;;6799420;87;20055;-79
2024/01/05 18:11:46;;;;;;;;;;;7.60;99.90;;;;;;6794289;87;20062;-80
2024/01/05 18:21:49;;;;;;;;;;;7.60;99.90;;;;;;6796100;87;20616;-80
2024/01/05 18:31:50;;;;;;;;;;;7.60;99.90;;;;;;6778442;88;20068;-79
2024/01/05 18:41:51;;;;;;;;;;;7.60;99.90;;;;;;6778066;88;20038;-80
2024/01/05 18:51:53;;;;;;;;;;;7.60;99.90;;;;;;6780596;88;20054;-80
2024/01/05 19:01:53;;;;;;;;;;;7.60;99.90;;;;;;6778155;87;20171;-80
2024/01/05 19:11:53;;;;;;;;;;;7.50;99.90;;;;;;6776870;88;20167;-81
2024/01/05 19:21:54;;;;;;;;;;;7.40;99.90;;;;;;6780466;88;20084;-81
2024/01/05 19:31:55;;;;;;;;;;;7.40;99.90;;;;;;6784993;87;20071;-81
2024/01/05 19:41:56;;;;;;;;;;;7.40;99.90;;;;;;6785329;87;20069;-81
2024/01/05 19:51:59;;;;;;;;;;;7.40;99.90;;;;;;6783031;88;20025;-81
2024/01/05 20:02:00;;;;;;;;;;;7.40;99.90;;;;;;6783937;87;20026;-81
2024/01/05 20:12:03;;;;;;;;;;;7.20;99.90;;;;;;6785277;88;20044;-82
2024/01/05 20:22:05;;;;;;;;;;;7.30;99.90;;;;;;6781330;88;20710;-81
2024/01/05 20:32:06;;;;;;;;;;;7.30;99.90;;;;;;6781805;88;20675;-82
2024/01/05 20:42:06;;;;;;;;;;;7.40;99.90;;;;;;6778188;88;20213;-81
2024/01/05 20:52:07;;;;;;;;;;;7.30;99.90;;;;;;6774503;88;20204;-81
2024/01/05 21:02:07;;;;;;;;;;;7.40;99.90;;;;;;6774188;88;20441;-82
2024/01/05 21:12:09;;;;;;;;;;;7.30;99.90;;;;;;6773484;88;20608;-81
2024/01/05 21:22:09;;;;;;;;;;;7.20;99.90;;;;;;6772308;88;20080;-81
2024/01/05 21:32:10;;;;;;;;;;;7.10;99.90;;;;;;6771931;88;20074;-80
2024/01/05 21:42:11;;;;;;;;;;;7.20;99.90;;;;;;6773466;87;20684;-79
2024/01/05 21:52:11;;;;;;;;;;;7.20;99.90;;;;;;6759111;88;20179;-80
2024/01/05 22:02:12;;;;;;;;;;;7.20;99.90;;;;;;6754192;88;20066;-79
2024/01/05 22:12:14;;;;;;;;;;;7.20;99.90;;;;;;6757189;88;20088;-79
2024/01/05 22:22:15;;;;;;;;;;;7.20;99.90;;;;;;6766805;88;20057;-81
2024/01/05 22:32:15;;;;;;;;;;;7.10;99.90;;;;;;6774300;88;20102;-81
2024/01/05 22:42:16;;;;;;;;;;;7.20;99.90;;;;;;6773204;88;20072;-81
2024/01/05 22:52:16;;;;;;;;;;;7.30;99.90;;;;;;6771436;88;20102;-82
2024/01/05 23:02:17;;;;;;;;;;;7.20;99.90;;;;;;6767339;88;20080;-82
2024/01/05 23:12:17;;;;;;;;;;;7.20;99.90;;;;;;6768398;88;20549;-81
2024/01/05 23:22:18;;;;;;;;;;;7.30;99.90;;;;;;6771679;88;20060;-81
2024/01/05 23:32:18;;;;;;;;;;;7.20;99.90;;;;;;6774099;88;20049;-81
2024/01/05 23:42:18;;;;;;;;;;;7.30;99.90;;;;;;6775563;88;20077;-81
2024/01/05 23:52:19;;;;;;;;;;;7.30;99.90;;;;;;6775727;88;20040;-80
